Time;durP1;ratioP1;P1;durP2;ratioP2;P2;SDS_P1;SDS_P2;PMS_P1;PMS_P2;Temp;Humidity;BMP_temperature;BMP_pressure;BME280_temperature;BME280_humidity;BME280_pressure;Samples;Min_cycle;Max_cycle;Signal;HPM_P1;HPM_P2
2023/04/28 00:14:33;;;;;;;;;;;;;;;22.19;39.40;100862.56;41462133;28;19925;-77
2023/04/28 00:34:36;;;;;;;;;;;;;;;22.16;39.49;100863.66;41469213;28;19929;-75
2023/04/28 00:54:36;;;;;;;;;;;;;;;22.14;39.41;100855.03;41495916;28;20016;-76
2023/04/28 01:14:38;;;;;;;;;;;;;;;22.09;39.56;100865.06;41467723;28;19921;-75
2023/04/28 01:34:38;;;;;;;;;;;;;;;22.04;39.61;100873.31;41479282;28;19971;-77
2023/04/28 01:54:44;;;;;;;;;;;;;;;22.02;39.77;100859.41;41529814;28;19976;-76
2023/04/28 02:14:45;;;;;;;;;;;;;;;21.99;39.70;100877.25;41571998;28;19940;-75
2023/04/28 02:34:45;;;;;;;;;;;;;;;21.90;39.54;100876.13;41572510;28;19921;-76
2023/04/28 02:54:47;;;;;;;;;;;;;;;21.84;39.92;100882.69;41592815;28;19933;-76
2023/04/28 03:14:49;;;;;;;;;;;;;;;21.83;39.77;100883.63;41574026;28;19930;-77
2023/04/28 03:34:51;;;;;;;;;;;;;;;21.81;39.94;100903.16;41575928;28;19936;-77
2023/04/28 03:54:52;;;;;;;;;;;;;;;21.82;39.93;100899.56;41513110;28;19930;-73
2023/04/28 04:14:52;;;;;;;;;;;;;;;21.82;40.06;100915.38;41431769;28;19957;-79
2023/04/28 04:34:52;;;;;;;;;;;;;;;21.84;41.99;100922.22;41375704;28;21671;-75
2023/04/28 04:54:55;;;;;;;;;;;;;;;21.92;42.51;100916.38;41506466;28;20594;-78
2023/04/28 05:14:55;;;;;;;;;;;;;;;21.85;41.19;100923.06;41455789;28;19940;-73
2023/04/28 05:34:56;;;;;;;;;;;;;;;21.75;38.54;100936.91;41493544;28;20387;-78
2023/04/28 05:54:57;;;;;;;;;;;;;;;21.88;41.77;100936.84;41482022;28;19921;-75
2023/04/28 06:14:59;;;;;;;;;;;;;;;21.89;41.50;100945.63;41486790;28;19979;-78
2023/04/28 06:35:00;;;;;;;;;;;;;;;21.96;41.62;100948.66;41545025;28;19952;-77
2023/04/28 06:55:00;;;;;;;;;;;;;;;22.02;41.84;100949.06;41407490;28;19960;-77
2023/04/28 07:15:00;;;;;;;;;;;;;;;22.07;42.07;100933.75;41549745;28;19929;-76
2023/04/28 07:35:01;;;;;;;;;;;;;;;22.13;41.66;100932.47;41439706;28;19936;-78
2023/04/28 07:55:02;;;;;;;;;;;;;;;22.17;41.63;100920.72;41536599;28;20015;-77
2023/04/28 08:15:03;;;;;;;;;;;;;;;22.21;41.88;100884.41;41473230;28;19925;-76
2023/04/28 08:35:14;;;;;;;;;;;;;;;22.22;41.59;100857.91;41559513;28;19925;-79
2023/04/28 08:55:15;;;;;;;;;;;;;;;22.26;41.85;100840.06;41498855;28;19928;-82
2023/04/28 09:15:26;;;;;;;;;;;;;;;22.31;41.57;100843.19;41533954;28;19975;-80
2023/04/28 09:35:42;;;;;;;;;;;;;;;22.34;41.82;100834.25;41527286;28;19926;-79
2023/04/28 09:55:44;;;;;;;;;;;;;;;22.43;41.65;100803.69;41554679;28;19929;-79
2023/04/28 10:15:45;;;;;;;;;;;;;;;22.52;41.86;100795.06;41507506;28;19929;-80
2023/04/28 10:35:46;;;;;;;;;;;;;;;22.57;41.05;100753.34;41500937;28;19929;-79
2023/04/28 10:56:04;;;;;;;;;;;;;;;22.34;33.44;100726.06;41506470;28;19932;-79
2023/04/28 11:16:05;;;;;;;;;;;;;;;22.22;28.58;100699.66;41457383;28;19929;-77
2023/04/28 11:36:05;;;;;;;;;;;;;;;22.09;27.08;100688.38;41515468;28;19925;-80
2023/04/28 11:56:09;;;;;;;;;;;;;;;22.04;29.69;100687.88;41442640;28;19928;-81
2023/04/28 12:16:09;;;;;;;;;;;;;;;22.14;32.58;100662.50;41463178;28;19924;-79
2023/04/28 12:36:10;;;;;;;;;;;;;;;22.23;35.17;100647.75;41525714;28;19921;-78
2023/04/28 12:56:10;;;;;;;;;;;;;;;22.33;36.75;100593.31;41484490;28;20296;-79
2023/04/28 13:16:13;;;;;;;;;;;;;;;22.48;38.36;100553.50;41338991;28;20434;-76
2023/04/28 13:36:13;;;;;;;;;;;;;;;22.55;39.66;100560.78;41462658;28;19925;-77
2023/04/28 13:56:14;;;;;;;;;;;;;;;22.57;39.41;100531.66;41528944;28;19925;-77
2023/04/28 14:16:15;;;;;;;;;;;;;;;22.64;40.06;100487.97;41517546;28;19925;-76
2023/04/28 14:36:15;;;;;;;;;;;;;;;22.63;40.00;100491.56;41563432;28;19924;-79
2023/04/28 14:56:19;;;;;;;;;;;;;;;22.60;39.50;100477.78;41549134;28;19959;-77
2023/04/28 15:16:19;;;;;;;;;;;;;;;22.42;34.32;100470.38;41518250;28;20012;-74
2023/04/28 15:36:20;;;;;;;;;;;;;;;22.23;32.24;100453.41;41535412;28;19925;-74
2023/04/28 15:56:22;;;;;;;;;;;;;;;22.13;31.68;100414.69;41539112;28;19925;-79
2023/04/28 16:16:24;;;;;;;;;;;;;;;22.14;33.98;100401.41;41400218;28;19929;-79
2023/04/28 16:36:24;;;;;;;;;;;;;;;22.18;36.05;100380.88;41478305;28;19929;-77
2023/04/28 16:56:25;;;;;;;;;;;;;;;22.25;37.50;100357.47;41559352;28;19925;-78
2023/04/28 17:16:29;;;;;;;;;;;;;;;22.47;40.68;100330.19;41477670;28;19935;-79
2023/04/28 17:36:32;;;;;;;;;;;;;;;22.64;41.66;100334.03;41464351;28;19929;-78
2023/04/28 17:56:32;;;;;;;;;;;;;;;22.68;41.15;100331.00;41391975;28;23861;-76
2023/04/28 18:16:33;;;;;;;;;;;;;;;22.71;41.09;100341.28;41512693;28;19925;-75
2023/04/28 18:36:36;;;;;;;;;;;;;;;22.76;41.24;100351.47;41547734;28;19928;-77
2023/04/28 18:56:38;;;;;;;;;;;;;;;22.81;41.39;100351.94;41461916;28;19925;-76
2023/04/28 19:16:39;;;;;;;;;;;;;;;22.76;41.32;100356.75;41503328;28;19922;-77
2023/04/28 19:36:39;;;;;;;;;;;;;;;22.67;42.17;100365.47;41453610;28;19925;-76
2023/04/28 19:56:42;;;;;;;;;;;;;;;22.58;42.88;100360.94;41550276;28;19931;-75
2023/04/28 20:16:43;;;;;;;;;;;;;;;22.54;42.95;100319.00;41512241;28;19968;-76
2023/04/28 20:36:43;;;;;;;;;;;;;;;22.52;43.05;100318.28;41552172;28;20360;-76
2023/04/28 20:56:44;;;;;;;;;;;;;;;22.47;43.31;100331.03;41469924;28;19961;-75
2023/04/28 21:16:44;;;;;;;;;;;;;;;22.44;43.34;100307.53;41492094;28;19932;-75
2023/04/28 21:36:47;;;;;;;;;;;;;;;22.44;43.20;100320.72;41505682;28;20292;-75
2023/04/28 21:56:47;;;;;;;;;;;;;;;22.36;43.26;100316.06;41491470;28;19925;-75
2023/04/28 22:16:47;;;;;;;;;;;;;;;22.33;43.25;100312.84;41572193;28;19930;-75
2023/04/28 22:36:48;;;;;;;;;;;;;;;22.31;43.27;100301.56;41483576;28;19943;-75
2023/04/28 22:56:48;;;;;;;;;;;;;;;22.27;43.47;100298.34;41458796;28;20020;-76
2023/04/28 23:16:49;;;;;;;;;;;;;;;22.24;43.62;100288.09;41505624;28;19925;-75
2023/04/28 23:36:50;;;;;;;;;;;;;;;22.26;43.57;100269.47;41488851;28;19925;-74
2023/04/28 23:56:50;;;;;;;;;;;;;;;22.19;43.69;100254.19;41577004;28;20395;-75
